Compton, California
Current Conditions -  °F | °C
As of 2:53 PM on Thursday 23 Oct 2014 (Local Time) from KLGB Reporting Station
Clear Clear  
Wind Chill: 81°   Ceiling: Unl
Heat Index: 81°   Visibility: 10mi
Dew Point: 59°   Wind: 7mph
Humidity: 47%   Direction: 190°S
Pressure: 29.91"   Gusts: NA
Location:  33.89°N, 118.22°W
Report Text: KLGB 232153Z 19006KT 10SM CLR 27/15 A2991 RMK AO2 SLP128 T02720150
Loading
Personal Weather Stations






























Interactive Weather Map
Tropical Storm Tracking
New forecast layout! Learn more

10-Day Weather Forecast

Advertisements
Track Severe Weather on mobile